x

Tanner Bank - 121nm West Of San Diego, Ca (46047) Wave Buoy

12:50 - Mon 16th Jan 2017 All times are PST. -8 hours from GMT.

  • Sig Wave height 6.9ft
  • Swell Direction
  • Peak Period 17s
  • Average Period 10s
  • Wind
    7mph, 9mph gusts
  • Sea Temp 60°f
  • Ar Temp 56°f
  • Sea Pressure 1017.6mb
  • Tanner Bank - 121nm West Of San Diego, Ca
  • Tanner Bank - 121nm West Of San Diego, Ca

More Historic Weather Station data

Upgrade to MSW Pro to gain access to the past 30 days of data for over 8000 Wavebouys and Weather Stations around the globe.

Join Pro

Comparision Forecast

View Surf forecast
   
Seg 01/16 12:50 7ft 17s 10s 7 9 mph 1017.6mb 60f 56f
11:50 7ft 17s 10s 7 9 mph 1018.4mb 60f 56f
10:50 7ft 17s 10s 9 11 mph 1019.1mb 60f 56f
9:50 6.5ft 17s 9s 9
mph
1019.3mb 60f 56f
8:50 7ft 17s 10s 7 11 mph 1018.7mb 59f 56f
7:50 7ft 17s 9s 7
mph
1018.4mb 59f 57f
6:50 7ft 17s 9s 2
mph
1017.8mb 59f 56f
5:50 6ft 17s 8s 4 7 mph 1016.9mb 59f 56f
4:50 7.5ft 19s 9s 2 4 mph 1016.4mb 59f 57f
3:50 5.5ft 19s 7s 2
mph
1016.6mb 59f 57f
2:50 5.5ft 19s 7s 4
mph
1016.8mb 60f 56f
1:50 6ft 19s 7s 11 13 mph 1017.4mb 60f 57f
12:50 6.5ft 19s 8s 11 16 mph 1017.6mb 60f 56f
Dom 01/15 11:50 6.5ft 19s 7s 9 13 mph 1017.6mb 60f 56f
10:50 6ft 19s 7s 9 11 mph 1017.9mb 60f 56f
9:50 6ft 19s 6s 13 18 mph 1018.2mb 60f 56f
8:50 6.5ft 19s 6s 16 20 mph 1018.1mb 59f 56f
7:50 6.5ft 19s 7s 18 20 mph 1018mb 59f 56f
6:50 7ft 19s 7s 16 18 mph 1017.8mb 59f 56f
5:50 6.5ft 8s 6s 13 18 mph 1017.4mb 59f 56f
4:50 7ft 8s 6s 16 20 mph 1017.1mb 59f 56f
3:50 7ft 8s 6s 16 20 mph 1016.9mb 60f 57f
2:50 7.5ft 8s 7s 18 22 mph 1017mb 60f 56f
1:50 8ft 8s 6s 20 22 mph 1017.1mb 59f 57f
12:50 7ft 7s 6s 18 22 mph 1017.5mb 59f 56f
11:50 7ft 8s 6s 18 20 mph 1018.2mb 59f 56f
10:50 7.5ft 8s 6s 16 20 mph 1019.1mb 59f 56f
9:50 8ft 8s 6s 18 20 mph 1018.9mb 59f 56f
8:50 8ft 8s 6s 20 22 mph 1018mb 59f 56f
7:50 7.5ft 8s 6s 20 25 mph 1017.4mb 60f 56f
6:50 8ft 8s 6s 22 25 mph 1017.2mb 60f 57f
5:50 8ft 7s 6s 25 29 mph 1016.9mb 60f 57f
4:50 8ft 8s 6s 22 29 mph 1016.9mb 60f 57f
3:50 8ft 8s 6s 22 27 mph 1016.7mb 60f 57f
2:50 9ft 8s 6s 20 25 mph 1016.6mb 60f 58f
1:50 9ft 8s 6s 22 27 mph 1016.7mb 60f 58f
12:50 8.5ft 8s 6s 22 27 mph 1016.5mb 60f 58f
Sáb 01/14 11:50 9ft 8s 6s 25 29 mph 1016.3mb 60f 58f
10:50 8.5ft 8s 6s 25 29 mph 1016.4mb 60f 58f
9:50 9ft 8s 6s 27 34 mph 1016.3mb 60f 58f
8:50 8ft 9s 6s 27 34 mph 1016.6mb 60f 59f
7:50 7.5ft 8s 6s 25 29 mph 1016.6mb 61f 59f
6:50 7ft 8s 6s 20 27 mph 1016.9mb 61f 59f
5:50 7ft 9s 6s 20 27 mph 1016.6mb 61f 59f
4:50 7ft 15s 6s 20 25 mph 1016.7mb 61f 59f
3:50 7ft 9s 6s 20 22 mph 1016.6mb 61f 59f
2:50 7ft 9s 6s 20 25 mph 1016.5mb 61f 59f
1:50 7ft 10s 7s 18 22 mph 1016.5mb 61f 59f
12:50 7ft 8s 7s 18 20 mph 1016.6mb 61f 59f
11:50 7ft 10s 7s 13 16 mph 1017.4mb 61f 59f
10:50 6.5ft 8s 7s 13 16 mph 1018mb 61f 59f
9:50 7ft 9s 7s 13 18 mph 1018.3mb 61f 59f
8:50 7.5ft 9s 7s 9 13 mph 1017.9mb 60f 60f
7:50 7ft 11s 7s 11
mph
1017.3mb 61f 59f
6:50 7ft 8s 7s 13 16 mph 1017.5mb 60f 59f
5:50 7ft 10s 7s 16 18 mph 1017mb 60f 58f
4:50 7ft 11s 7s 11 13 mph 1017mb 60f 58f
3:50 7ft 11s 7s 7 9 mph 1017.2mb 61f 58f
2:50 7.5ft 9s 8s 7 9 mph 1017.7mb 61f 58f
1:50 7ft 10s 7s 7 9 mph 1017.8mb 61f 58f
12:50 7.5ft 10s 7s 9 11 mph 1017.6mb 61f 57f
Sex 01/13 11:50 7ft 11s 7s 9
mph
1017.7mb 61f 57f
10:50 7ft 9s 7s 11 13 mph 1017.5mb 61f 57f
9:50 7.5ft 10s 8s 11 13 mph 1017.2mb 61f 57f
8:50 7ft 11s 7s 9 13 mph 1017mb 61f 56f
7:50 7ft 10s 7s 11 13 mph 1016.9mb 61f 56f
6:50 7.5ft 11s 7s 13 18 mph 1016.8mb 61f 55f
5:50 8ft 11s 7s 13 20 mph 1016.4mb 61f 56f
4:50 7.5ft 11s 6s 18 20 mph 1016.4mb 61f 56f
3:50 8.5ft 11s 7s 18 22 mph 1016.6mb 61f 56f
2:50 8.5ft 11s 7s 18 25 mph 1016.2mb 61f 56f
1:50 9ft 12s 7s 18 22 mph 1016.2mb 61f 55f
12:50 8ft 12s 7s 18 25 mph 1016.2mb 61f 55f
11:50 8ft 12s 7s 16 20 mph 1017mb 61f 55f
10:50 8ft 12s 7s 18 22 mph 1017.7mb 61f 55f
9:50 8ft 11s 7s 20 27 mph 1017.9mb 61f 55f
8:50 8ft 12s 7s 16 20 mph 1017.4mb 61f 55f
7:50 7.5ft 12s 7s 16 22 mph 1017mb 61f 55f
6:50 8ft 12s 7s 16 22 mph 1016.8mb 61f 55f
5:50 8ft 12s 7s 16 20 mph 1016.5mb 61f 55f
4:50 8ft 11s 7s 18 20 mph 1016.3mb 61f 55f
3:50 8.5ft 13s 7s 16 20 mph 1016.5mb 61f 55f
2:50 8ft 11s 7s 16 20 mph 1016.5mb 61f 55f
1:50 8.5ft 12s 8s 18 20 mph 1016.2mb 61f 56f
12:50 8ft 11s 7s 16 22 mph 1016.1mb 61f 56f
Qui 01/12 11:50 8ft 12s 7s 18 20 mph 1016.1mb 61f 56f
10:50 7.5ft 13s 7s 18 20 mph 1016mb 61f 56f